Список аэропортов
Фактическая погода:

24 мая, 16:00
Температура: +18°C (+17.6*)
Ветер: северный 5 м/с
Давление: *759 мм
неб. 900 м
Время (МСК)Темп. СВетерВлажностьДавлениеОблачностьОсадки
15:00+18С, 5 м/с50%1012 гПаясно
16:00+17С, 6 м/с50%1012 гПаясно
17:00+16С, 5 м/с48%1013 гПаясно
18:00+16С, 5 м/с53%1013 гПаясно
19:00+14С, 5 м/с61%1013 гПаясно
20:00+13С, 5 м/с70%1013 гПаясно
21:00+12С, 5 м/с76%1014 гПаясно
22:00+11С, 4 м/с77%1014 гПаясно
23:00+10С, 3 м/с81%1014 гПаясно
25 мая
00:00+9СЗ, 2 м/с92%1014 гПаясно
01:00+8З, 2 м/с96%1015 гПаясно
02:00+8З, 2 м/с97%1015 гПаясно
03:00+7З, 2 м/с97%1015 гПаясно
04:00+7З, 2 м/с97%1015 гПаясно
05:00+6З, 2 м/с98%1015 гПаясно
06:00+6ЮЗ, 2 м/с98%1015 гПамалооблачно
07:00+7ЮЗ, 2 м/с94%1015 гПаясно
08:00+10ЮЗ, 3 м/с82%1015 гПаясно
09:00+14ЮЗ, 3 м/с65%1015 гПас прояснениями
10:00+15З, 4 м/с65%1015 гПаоблачно
11:00+14З, 4 м/с76%1015 гПаоблачносл. дождь
12:00+17З, 5 м/с59%1016 гПас прояснениями
13:00+18З, 5 м/с54%1016 гПамалооблачно
14:00+18З, 6 м/с54%1016 гПамалооблачно
15:00+18З, 6 м/с52%1016 гПаясно
16:00+17СЗ, 6 м/с53%1016 гПаясно
17:00+17СЗ, 6 м/с53%1016 гПамалооблачно
18:00+16СЗ, 5 м/с57%1016 гПас прояснениями
19:00+14СЗ, 4 м/с64%1016 гПас прояснениями
20:00+13СЗ, 4 м/с67%1015 гПамалооблачно
21:00+12З, 3 м/с74%1015 гПаоблачно
22:00+11З, 2 м/с83%1015 гПаясно
23:00+10З, 2 м/с91%1015 гПас прояснениями
26 мая
00:00+10З, 1 м/с92%1015 гПаоблачно
01:00+10ЮЗ, 1 м/с90%1015 гПаоблачно
02:00+10ЮЗ, 1 м/с88%1014 гПаоблачно
03:00+10Ю, 1 м/с88%1014 гПаоблачно
04:00+9Ю, 1 м/с94%1014 гПас прояснениями
05:00+9Ю, 2 м/с96%1014 гПас прояснениями
06:00+8ЮЗ, 2 м/с96%1014 гПас прояснениями
07:00+9З, 2 м/с92%1014 гПамалооблачно
08:00+11З, 2 м/с84%1014 гПамалооблачно
09:00+13З, 3 м/с74%1015 гПамалооблачно
10:00+15З, 2 м/с68%1015 гПас прояснениями
11:00+17З, 3 м/с58%1015 гПамалооблачно
12:00+18СЗ, 4 м/с55%1015 гПамалооблачно
13:00+18СЗ, 4 м/с56%1015 гПамалооблачно
14:00+18СЗ, 5 м/с59%1016 гПас прояснениями
15:00+16СЗ, 6 м/с70%1016 гПас прояснениями